Portada
METAR-TAF:

METAR-TAF

Aeropuertos :

Aeropuerto Internacional de Kuwait

Ciudad de Kuwait, Kuwait

latitud: 29-13N, longitud: 047-59E, altitud: 55 m

Observación

El informe se hizo hace 31 minutos, a las 06:00 UTC
Viento 11 kt del norte-noroeste
Temperatura 38°C
Humedad 19%
Presión 999 hPa
Visibilidad: 8000 m

METAR: OKBK 220600Z 34011KT 8000 NSC 38/10 Q0999 NOSIG

Hora: 09:31 (06:31 UTC)

Pronóstico

El informe se hizo hace 1 hora y 46 minutos, a las 04:45 UTC
Pronóstico válido del 22 a las 06 UTC al 23 a las 12 UTC
Viento 12 kt del norte-noroeste con ráfagas de 22 kt
Visibilidad: 7000 m
Cielo despejado
Temporalmente
del 22 a las 08 UTC al 22 a las 14 UTC
Visibilidad: 2000 m
Ventisca alta de polvo

TAF: OKBK 220445Z 2206/2312 34012G22KT 7000 SKC TEMPO 2208/2214 2000 BLDU

Observaciones y pronósticos meteorológicos de más de 4000 aeropuertos (mensajes METAR y TAF).

Los puntos amarillos y rojos representan las estaciones disponibles.

Ponga el ratón en el punto deseado para ver el nombre de la estación.

Haga clic para ver las observaciones y los pronósticos meteorológicos.

Para cambiar el mapa : haga clic en los botones verdes con una cruz de color negro para hacer un zoom, en el botón verde con un guión para alejar o en las flechas verdes para mapas adyacentes.


METAR-TAF: